FQMA

Maputo Airport

Maputo, Mozambique
METAR FQMA 251300Z 07003KT CAVOK 29/20 Q1010
Observed Flight Rules
Sep-25 @ 13:00 UTC (2 hours ago) Visual Flight Rules
Wind Visibility Clouds
70° at 3 knots 10,000+ meters
  • Clear skies
Temperatures Readings
Current 29°C / 84°F
Dewpoint 20°C / 68°F
Humidity 58%
Altimeter 29.82" Hg
Pressure 1010 hPa
Elevation 44
METAR FQMA 251300Z 07003KT CAVOK 29/20 Q1010
Observed Flight Rules
Sep-25 @ 13:00 UTC
(2 hours ago)
VFR
Wind Visibility
70° at 3 knots 10,000+ meters
Clouds
  • Clear skies
Temperature Dewpoint
29°C / 84°F 20°C / 68°F
Humidity Altimeter Pressure
58% 29.82" Hg 1010 hPa